• Join FlightAware (Why Join?)
  • Login
  • US Flag 
01:15AM EDT


 

Airport Tracker/Info


-or-


 

Live Flight TrackerFlight Track Log ✈ EJA396 ✈ 27-Sep-2013 ✈ KTEB - KHTS

Flight Track Log - Related Links

Times and Time Zones

All times are in EDT time to prevent confusion due to time zone crossing. See the EJA396 flight status page for this flight to view local times or setup timezone preferences in your user account.

Time Position Orientation Groundspeed Altitude Reporting Facility
EDT Latitude Longitude Course Direction KTS MPH feet Rate Location/Type
12:29PM 40.8833 -74.0500 339° North 171 197 2,000  Level New York TRACON
12:30PM 40.9167 -74.0667 339° North 202 232 3,500 2,340 Climbing New York TRACON
12:31PM 40.9167 -74.1667 270° West 276 318 6,500 3,060 Climbing New York TRACON
12:32PM 40.9333 -74.2667 282° West 292 336 9,700 2,280 Climbing New York TRACON
12:33PM 40.9333 -74.3833 270° West 350 403 11,100 2,640 Climbing New York TRACON
12:34PM 40.9000 -74.5167 252° West 350 403 15,100 2,340 Climbing New York TRACON
12:36PM 40.8511 -74.6831 249° West 372 428 17,000 1,080 Climbing New York Center
12:37PM 40.7925 -74.8139 239° Southwest 379 436 17,800 1,500 Climbing New York Center
12:38PM 40.7400 -74.9422 242° Southwest 385 443 20,000 2,220 Climbing New York Center
12:39PM 40.6853 -75.0731 241° Southwest 391 450 22,300 2,220 Climbing New York Center
12:40PM 40.6261 -75.2061 240° Southwest 407 468 24,500 2,160 Climbing New York Center
12:41PM 40.5647 -75.3414 239° Southwest 423 487 26,600 1,980 Climbing New York Center
12:42PM 40.5011 -75.4792 239° Southwest 435 501 28,500 1,860 Climbing New York Center
12:43PM 40.4347 -75.6219 239° Southwest 440 506 30,400 1,920 Climbing New York Center
12:44PM 40.3728 -75.7564 239° Southwest 445 512 32,300 1,800 Climbing New York Center
12:45PM 40.3086 -75.8961 239° Southwest 445 512 34,100 1,620 Climbing New York Center
12:46PM 40.2397 -76.0381 238° Southwest 459 528 35,600 1,200 Climbing New York Center
12:47PM 40.1869 -76.1453 237° Southwest 454 522 36,600 1,020 Climbing New York Center
12:48PM 40.1150 -76.3028 239° Southwest 454 522 37,700 1,080 Climbing New York Center
12:49PM 40.0500 -76.4439 239° Southwest 454 522 38,800 660 Climbing New York Center
12:51PM 39.8975 -76.7733 239° Southwest 448 516 40,000 360 Climbing Washington Center
12:52PM 39.8294 -76.9153 238° Southwest 455 524 40,000  Level Washington Center
12:53PM 39.7608 -77.0625 239° Southwest 468 539 40,000  Level Washington Center
12:54PM 39.6944 -77.2042 239° Southwest 468 539 40,000  Level Washington Center
12:55PM 39.6258 -77.3481 238° Southwest 468 539 40,000  Level Washington Center
12:56PM 39.5569 -77.4917 238° Southwest 468 539 40,000  Level Washington Center
12:57PM 39.4881 -77.6353 238° Southwest 468 539 40,000  Level Washington Center
12:58PM 39.4208 -77.7783 239° Southwest 468 539 40,000  Level Washington Center
12:59PM 39.3536 -77.9267 240° Southwest 468 539 40,000  Level Washington Center
01:00PM 39.2964 -78.0722 243° Southwest 463 533 40,000  Level Washington Center
01:01PM 39.2369 -78.2258 243° Southwest 469 540 40,000  Level Washington Center
01:02PM 39.1750 -78.3761 242° Southwest 469 540 40,000  Level Washington Center
01:03PM 39.1153 -78.5236 242° Southwest 469 540 40,000  Level Washington Center
01:04PM 39.0553 -78.6764 243° Southwest 469 540 40,000 -240 Level Washington Center
01:05PM 38.9969 -78.8289 244° Southwest 474 545 39,600 -960 Descending Washington Center
01:06PM 38.9717 -78.9878 258° West 460 529 38,200 -1,200 Descending Washington Center
01:07PM 38.9486 -79.1389 259° West 453 521 37,200 -1,080 Descending Washington Center
01:08PM 38.9231 -79.2978 258° West 453 521 36,100 -1,140 Descending Washington Center
01:09PM 38.8994 -79.4542 259° West 453 521 35,000 -1,020 Descending Washington Center
01:10PM 38.8800 -79.6022 260° West 455 524 34,100 -1,140 Descending Washington Center
01:11PM 38.8508 -79.7794 258° West 465 535 32,800 -1,260 Descending Washington Center
01:12PM 38.8244 -79.9406 258° West 465 535 31,700 -1,020 Descending Washington Center
01:13PM 38.8042 -80.0592 258° West 464 534 30,900 -1,140 Descending Indianapolis Center
01:14PM 38.7714 -80.2522 258° West 462 532 29,500 -1,620 Descending Indianapolis Center
01:15PM 38.7447 -80.4147 258° West 466 536 27,600 -1,740 Descending Indianapolis Center
01:16PM 38.7181 -80.5722 258° West 454 522 26,000 -960 Descending Indianapolis Center
01:17PM 38.6928 -80.7261 258° West 443 510 25,700 -900 Descending Indianapolis Center
01:18PM 38.6672 -80.8803 258° West 444 511 24,200 -1,500 Descending Indianapolis Center
01:19PM 38.6411 -81.0308 258° West 434 499 22,700 -1,500 Descending Indianapolis Center
01:20PM 38.6161 -81.1781 258° West 424 488 21,200 -1,800 Descending Indianapolis Center
01:21PM 38.5908 -81.3206 257° West 410 472 19,100 -2,280 Descending Indianapolis Center
01:22PM 38.5608 -81.4928 257° West 407 468 16,500 -2,460 Descending Indianapolis Center
01:23PM 38.5375 -81.6294 258° West 390 449 14,100 -2,400 Descending Indianapolis Center
01:24PM 38.5142 -81.7594 257° West 373 429 11,600 -1,500 Descending Indianapolis Center
01:25PM 38.4928 -81.8803 257° West 349 402 11,000 -360 Descending Indianapolis Center
01:26PM 38.4708 -82.0033 257° West 353 406 10,900 -660 Descending Indianapolis Center
01:27PM 38.4514 -82.1108 257° West 317 365 9,700 -1,320 Descending Indianapolis Center
01:28PM 38.4331 -82.2106 257° West 293 337 8,300 -1,620 Descending Indianapolis Center
01:29PM 38.4078 -82.2978 250° West 272 313 6,500 -1,860 Descending Indianapolis Center
01:30PM 38.3744 -82.3894 245° Southwest 244 281 4,500 -1,680 Descending Indianapolis Center
01:31PM 38.3517 -82.4558 246° West 216 249 3,100 -1,260 Descending Indianapolis Center
01:32PM 38.3492 -82.5039 266° West 156 180 1,900 -840 Descending Indianapolis Center
01:33PM 38.3608 -82.5386 293° West 139 160 1,400 -540 Descending Indianapolis Center
01:35PM 38.3667 -82.5500 270° West  Level FlightAware Approximate
01:42PM 38.3685 -82.5604 270° West  Level Estimated